Time;durP1;ratioP1;P1;durP2;ratioP2;P2;SDS_P1;SDS_P2;PMS_P1;PMS_P2;Temp;Humidity;BMP_temperature;BMP_pressure;BME280_temperature;BME280_humidity;BME280_pressure;Samples;Min_cycle;Max_cycle;Signal;HPM_P1;HPM_P2
2023/08/09 00:01:24;;;;;;;1.30;1.00;;;18.60;99.90;;;;;;5030116;28;20049;-76
2023/08/09 00:03:50;;;;;;;3.55;1.25;;;18.60;99.90;;;;;;5027887;28;20072;-76
2023/08/09 00:06:17;;;;;;;1.77;1.13;;;18.60;99.90;;;;;;5027684;28;20053;-76
2023/08/09 00:08:44;;;;;;;1.90;1.00;;;18.60;99.90;;;;;;5019656;28;20049;-76
2023/08/09 00:11:11;;;;;;;3.08;1.10;;;18.60;99.90;;;;;;5024600;28;20044;-76
2023/08/09 00:13:38;;;;;;;3.05;1.10;;;18.50;99.90;;;;;;5018852;28;20053;-76
2023/08/09 00:16:05;;;;;;;3.10;0.85;;;18.60;99.90;;;;;;5028127;28;20045;-76
2023/08/09 00:18:32;;;;;;;2.60;1.20;;;18.50;99.90;;;;;;5031836;28;20049;-76
2023/08/09 00:21:00;;;;;;;6.22;1.20;;;18.50;99.90;;;;;;5023427;28;20050;-76
2023/08/09 00:23:28;;;;;;;2.60;1.40;;;18.50;99.90;;;;;;5025507;28;20056;-76
2023/08/09 00:25:55;;;;;;;1.95;1.00;;;18.50;99.90;;;;;;5024601;28;20050;-76
2023/08/09 00:28:22;;;;;;;4.88;1.10;;;18.50;99.90;;;;;;5017559;28;20188;-76
2023/08/09 00:30:49;;;;;;;2.28;1.10;;;18.50;99.90;;;;;;5030551;28;20048;-75
2023/08/09 00:33:15;;;;;;;4.75;1.00;;;18.50;99.90;;;;;;5027886;28;20413;-76
2023/08/09 00:35:42;;;;;;;2.15;1.30;;;18.50;99.90;;;;;;5026235;28;20041;-76
2023/08/09 00:38:09;;;;;;;2.60;0.85;;;18.50;99.90;;;;;;5019544;28;20049;-76
2023/08/09 00:40:36;;;;;;;1.75;1.20;;;18.40;99.90;;;;;;5030798;28;20045;-76
2023/08/09 00:43:03;;;;;;;2.35;1.00;;;18.40;99.90;;;;;;5015759;28;20560;-76
2023/08/09 00:45:30;;;;;;;2.38;0.95;;;18.40;99.90;;;;;;5031773;28;20070;-76
2023/08/09 00:47:56;;;;;;;1.73;1.08;;;18.40;99.90;;;;;;5025021;28;20086;-76
2023/08/09 00:50:23;;;;;;;1.40;0.93;;;18.40;99.90;;;;;;5027549;28;20077;-76
2023/08/09 00:52:50;;;;;;;3.25;1.00;;;18.40;99.90;;;;;;5018297;28;20065;-76
2023/08/09 00:55:17;;;;;;;1.40;0.95;;;18.40;99.90;;;;;;5024764;28;20041;-76
2023/08/09 00:57:47;;;;;;;1.35;0.82;;;18.40;99.90;;;;;;5030719;28;20041;-76
2023/08/09 01:00:14;;;;;;;;;;;18.40;99.90;;;;;;5029704;28;20049;-76
2023/08/09 01:02:41;;;;;;;3.00;0.90;;;18.40;99.90;;;;;;5021885;28;19921;-76
2023/08/09 01:05:08;;;;;;;3.30;1.10;;;18.40;99.90;;;;;;5023662;28;20046;-76
2023/08/09 01:07:55;;;;;;;3.45;0.98;;;18.40;99.90;;;;;;5019335;28;20045;-76
2023/08/09 01:10:54;;;;;;;1.27;0.90;;;18.40;99.90;;;;;;5029628;28;20123;-76
2023/08/09 01:13:21;;;;;;;1.80;1.05;;;18.40;99.90;;;;;;5029272;28;20049;-76
2023/08/09 01:15:51;;;;;;;3.30;1.00;;;18.40;99.90;;;;;;5027078;28;20076;-76
2023/08/09 01:18:20;;;;;;;1.60;0.80;;;18.30;99.90;;;;;;5023402;28;20041;-76
2023/08/09 01:20:49;;;;;;;2.90;0.70;;;18.40;99.90;;;;;;5022442;28;20112;-76
2023/08/09 01:23:19;;;;;;;1.80;0.70;;;18.30;99.90;;;;;;5017082;28;20133;-75
2023/08/09 01:25:46;;;;;;;1.15;0.80;;;18.30;99.90;;;;;;5020768;28;20413;-76
2023/08/09 01:28:16;;;;;;;1.30;0.85;;;18.30;99.90;;;;;;5027648;28;20042;-76
2023/08/09 01:30:44;;;;;;;;;;;18.30;99.90;;;;;;5022605;28;20041;-76
2023/08/09 01:33:11;;;;;;;1.33;0.80;;;18.30;99.90;;;;;;5024633;28;19936;-75
2023/08/09 01:35:47;;;;;;;2.00;0.93;;;18.40;99.90;;;;;;5022393;28;20131;-76
2023/08/09 01:38:19;;;;;;;5.43;1.20;;;18.30;99.90;;;;;;5020441;28;20050;-76
2023/08/09 01:40:47;;;;;;;1.25;0.88;;;18.30;99.90;;;;;;5023978;28;20123;-76
2023/08/09 01:43:15;;;;;;;2.55;0.80;;;18.30;99.90;;;;;;5028273;28;20679;-76
2023/08/09 01:45:42;;;;;;;5.68;1.40;;;18.30;99.90;;;;;;5037147;28;20096;-76
2023/08/09 01:48:08;;;;;;;1.98;0.98;;;18.30;99.90;;;;;;5021513;28;20038;-76
2023/08/09 01:50:40;;;;;;;3.25;1.30;;;18.30;99.90;;;;;;5022519;28;20051;-76
2023/08/09 01:53:07;;;;;;;1.65;0.80;;;18.40;99.90;;;;;;5019626;28;20108;-76
2023/08/09 01:55:33;;;;;;;1.65;0.82;;;18.40;99.90;;;;;;5028203;28;20437;-76
2023/08/09 01:58:00;;;;;;;1.42;0.98;;;18.30;99.90;;;;;;5028052;28;20045;-76
2023/08/09 02:00:27;;;;;;;2.22;0.93;;;18.40;99.90;;;;;;5025112;28;20077;-76
2023/08/09 02:02:54;;;;;;;2.95;0.90;;;18.40;99.90;;;;;;5028487;28;20076;-77
2023/08/09 02:05:21;;;;;;;2.13;1.10;;;18.40;99.90;;;;;;5022277;28;20108;-75
2023/08/09 02:07:50;;;;;;;1.55;1.00;;;18.40;99.90;;;;;;5023519;28;20041;-76
2023/08/09 02:10:17;;;;;;;3.58;1.00;;;18.40;99.90;;;;;;5028917;28;20042;-76
2023/08/09 02:12:47;;;;;;;3.50;1.10;;;18.40;99.90;;;;;;5032266;28;20123;-76
2023/08/09 02:15:15;;;;;;;2.40;1.10;;;18.40;99.90;;;;;;5028549;28;20037;-76
2023/08/09 02:17:43;;;;;;;0.93;0.70;;;18.40;99.90;;;;;;5027406;28;20124;-76
2023/08/09 02:20:11;;;;;;;4.20;0.80;;;18.40;99.90;;;;;;5032393;28;20046;-76
2023/08/09 02:22:39;;;;;;;4.15;1.08;;;18.40;99.90;;;;;;5020406;28;20402;-76
2023/08/09 02:25:07;;;;;;;2.20;0.65;;;18.50;99.90;;;;;;5031620;28;20394;-76
2023/08/09 02:27:34;;;;;;;1.58;1.10;;;18.50;99.90;;;;;;5032239;28;20049;-76
2023/08/09 02:30:06;;;;;;;1.63;1.02;;;18.50;99.90;;;;;;5024721;28;20042;-76
2023/08/09 02:32:34;;;;;;;1.63;0.80;;;18.50;99.90;;;;;;5024982;28;20105;-76
2023/08/09 02:35:01;;;;;;;2.60;0.93;;;18.50;99.90;;;;;;5024016;28;20125;-76
2023/08/09 02:37:28;;;;;;;2.97;0.90;;;18.50;99.90;;;;;;5018701;28;20076;-75
2023/08/09 02:39:55;;;;;;;3.00;0.80;;;18.50;99.90;;;;;;5030416;28;20093;-76
2023/08/09 02:42:21;;;;;;;1.00;0.90;;;18.50;99.90;;;;;;5028929;28;20566;-76
2023/08/09 02:44:48;;;;;;;1.45;0.95;;;18.50;99.90;;;;;;5025505;28;20044;-76
2023/08/09 02:47:15;;;;;;;1.80;1.08;;;18.50;99.90;;;;;;5033599;28;20464;-76
2023/08/09 02:49:43;;;;;;;1.05;0.80;;;18.50;99.90;;;;;;5025805;28;20037;-76
2023/08/09 02:52:10;;;;;;;2.10;1.00;;;18.50;99.90;;;;;;5023455;28;20042;-76
2023/08/09 02:54:37;;;;;;;2.58;1.13;;;18.50;99.90;;;;;;5032046;28;20493;-75
2023/08/09 02:57:06;;;;;;;1.25;0.98;;;18.50;99.90;;;;;;5033032;28;20046;-76
2023/08/09 02:59:34;;;;;;;1.98;1.10;;;18.50;99.90;;;;;;5026656;28;20045;-76
2023/08/09 03:02:01;;;;;;;2.03;1.15;;;18.50;99.90;;;;;;5022756;28;20049;-76
2023/08/09 03:04:28;;;;;;;2.58;1.13;;;18.50;99.90;;;;;;5025529;28;20053;-75
2023/08/09 03:06:55;;;;;;;1.70;1.10;;;18.50;99.90;;;;;;5021780;28;20095;-76
2023/08/09 03:09:22;;;;;;;2.28;1.05;;;18.50;99.90;;;;;;5030290;28;20049;-76
2023/08/09 03:11:49;;;;;;;1.33;0.90;;;18.50;99.90;;;;;;5045709;28;20118;-76
2023/08/09 03:14:15;;;;;;;2.78;1.25;;;18.50;99.90;;;;;;5023187;28;20717;-76
2023/08/09 03:16:42;;;;;;;3.63;1.00;;;18.50;99.90;;;;;;5023114;28;20048;-76
2023/08/09 03:19:09;;;;;;;2.60;0.90;;;18.50;99.90;;;;;;5025073;28;20149;-76
2023/08/09 03:21:36;;;;;;;2.20;0.85;;;18.50;99.90;;;;;;5027362;28;20046;-76
2023/08/09 03:24:02;;;;;;;2.20;1.30;;;18.50;99.90;;;;;;5027695;28;20048;-76
2023/08/09 03:26:29;;;;;;;3.45;1.33;;;18.60;99.90;;;;;;5025507;28;20057;-76
2023/08/09 03:28:56;;;;;;;1.77;0.98;;;18.60;99.90;;;;;;5025632;28;20053;-76
2023/08/09 03:31:23;;;;;;;2.40;0.93;;;18.60;99.90;;;;;;5018699;28;20046;-76
2023/08/09 03:33:49;;;;;;;1.65;1.13;;;18.60;99.90;;;;;;5024713;28;20504;-76
2023/08/09 03:36:16;;;;;;;2.70;0.90;;;18.60;99.90;;;;;;5029405;28;20054;-76
2023/08/09 03:38:43;;;;;;;1.45;0.80;;;18.60;99.90;;;;;;5038312;28;20521;-76
2023/08/09 03:41:10;;;;;;;1.50;0.90;;;18.60;99.90;;;;;;5028906;28;20049;-75
2023/08/09 03:43:37;;;;;;;2.30;1.00;;;18.60;99.90;;;;;;5024256;28;20042;-76
2023/08/09 03:46:04;;;;;;;2.58;1.05;;;18.60;99.90;;;;;;5017330;28;20481;-76
2023/08/09 03:48:31;;;;;;;1.65;0.80;;;18.60;99.90;;;;;;5025901;28;20050;-76
2023/08/09 03:50:58;;;;;;;1.23;0.80;;;18.60;99.90;;;;;;5027114;28;20517;-75
2023/08/09 03:53:25;;;;;;;2.70;1.10;;;18.60;99.90;;;;;;5023541;28;20042;-76
2023/08/09 03:55:52;;;;;;;3.38;1.00;;;18.60;99.90;;;;;;5019909;28;20472;-76
2023/08/09 03:58:18;;;;;;;1.63;0.95;;;18.60;99.90;;;;;;5023112;28;20049;-76
2023/08/09 04:00:45;;;;;;;3.90;1.10;;;18.60;99.90;;;;;;5020728;28;20099;-76
2023/08/09 04:03:12;;;;;;;2.00;1.10;;;18.60;99.90;;;;;;5028554;28;20049;-76
2023/08/09 04:05:39;;;;;;;3.38;1.02;;;18.60;99.90;;;;;;5032154;28;20100;-76
2023/08/09 04:08:06;;;;;;;5.43;1.20;;;18.60;99.90;;;;;;5026378;28;20056;-76
2023/08/09 04:10:35;;;;;;;1.92;1.05;;;18.60;99.90;;;;;;5024419;28;20181;-76
2023/08/09 04:13:02;;;;;;;2.55;1.10;;;18.60;99.90;;;;;;5026773;28;20052;-76
2023/08/09 04:15:29;;;;;;;1.65;0.98;;;18.60;99.90;;;;;;5019831;28;20065;-76
2023/08/09 04:17:56;;;;;;;2.15;0.98;;;18.60;99.90;;;;;;5031076;28;20047;-76
2023/08/09 04:20:23;;;;;;;1.85;0.90;;;18.60;99.90;;;;;;5030199;28;20053;-76
2023/08/09 04:22:50;;;;;;;0.90;0.63;;;18.60;99.90;;;;;;5030172;28;20041;-76
2023/08/09 04:25:17;;;;;;;1.77;1.00;;;18.60;99.90;;;;;;5021564;28;20046;-76
2023/08/09 04:27:44;;;;;;;6.57;1.17;;;18.60;99.90;;;;;;5030011;28;20045;-76
2023/08/09 04:30:12;;;;;;;1.52;0.95;;;18.60;99.90;;;;;;5017166;28;20488;-75
2023/08/09 04:32:39;;;;;;;3.70;1.20;;;18.60;99.90;;;;;;5031027;28;20049;-75
2023/08/09 04:35:09;;;;;;;2.63;1.10;;;18.70;99.90;;;;;;5027435;28;20075;-75
2023/08/09 04:37:36;;;;;;;4.43;1.00;;;18.60;99.90;;;;;;5033898;28;20053;-76
2023/08/09 04:40:07;;;;;;;3.78;1.10;;;18.70;99.90;;;;;;5020951;28;20072;-76
2023/08/09 04:42:34;;;;;;;3.22;1.00;;;18.70;99.90;;;;;;5025582;28;20050;-75
2023/08/09 04:45:01;;;;;;;3.10;1.05;;;18.70;99.90;;;;;;5015858;28;20057;-75
2023/08/09 04:47:28;;;;;;;1.85;1.00;;;18.70;99.90;;;;;;5028006;28;20049;-76
2023/08/09 04:49:55;;;;;;;1.70;1.15;;;18.70;99.90;;;;;;5025048;28;20045;-76
2023/08/09 04:52:21;;;;;;;1.42;0.90;;;18.70;99.90;;;;;;5026461;28;20636;-76
2023/08/09 04:54:48;;;;;;;2.58;1.05;;;18.70;99.90;;;;;;5021622;28;20041;-76
2023/08/09 04:57:15;;;;;;;1.88;1.13;;;18.70;99.90;;;;;;5024815;28;20125;-76
2023/08/09 04:59:42;;;;;;;2.15;0.90;;;18.70;99.90;;;;;;5018537;28;20080;-76
2023/08/09 05:02:08;;;;;;;2.58;1.00;;;18.70;99.90;;;;;;5027533;28;20049;-75
2023/08/09 05:04:35;;;;;;;3.33;1.23;;;18.70;99.90;;;;;;5025942;28;20045;-75
2023/08/09 05:07:04;;;;;;;2.47;0.80;;;18.70;99.90;;;;;;5022336;28;20428;-76
2023/08/09 05:09:32;;;;;;;1.65;0.70;;;18.70;99.90;;;;;;5018513;28;20132;-76
2023/08/09 05:11:58;;;;;;;5.55;0.98;;;18.70;99.90;;;;;;5023389;28;20124;-76
2023/08/09 05:14:26;;;;;;;2.15;1.00;;;18.70;99.90;;;;;;5017925;28;20046;-76
2023/08/09 05:16:53;;;;;;;4.22;1.15;;;18.70;99.90;;;;;;5029600;28;20118;-76
2023/08/09 05:19:21;;;;;;;4.57;1.20;;;18.70;99.90;;;;;;5030025;28;20072;-76
2023/08/09 05:21:48;;;;;;;1.58;0.95;;;18.70;99.90;;;;;;5025368;28;20050;-76
2023/08/09 05:24:15;;;;;;;2.00;0.98;;;18.70;99.90;;;;;;5027728;28;20038;-76
2023/08/09 05:26:42;;;;;;;1.88;0.90;;;18.70;99.90;;;;;;5024153;28;20073;-76
2023/08/09 05:29:08;;;;;;;1.85;1.05;;;18.70;99.90;;;;;;5027435;28;20041;-77
2023/08/09 05:31:35;;;;;;;5.50;1.40;;;18.70;99.90;;;;;;5028605;28;20505;-77
2023/08/09 05:34:02;;;;;;;2.05;1.08;;;18.70;99.90;;;;;;5024242;28;20053;-77
2023/08/09 05:36:30;;;;;;;2.45;1.33;;;18.70;99.90;;;;;;5027372;28;20065;-77
2023/08/09 05:38:57;;;;;;;1.98;1.40;;;18.70;99.90;;;;;;5026185;28;20501;-77
2023/08/09 05:41:24;;;;;;;1.65;1.13;;;18.70;99.90;;;;;;5025682;28;20092;-78
2023/08/09 05:43:50;;;;;;;1.58;0.88;;;18.70;99.90;;;;;;5037628;28;20544;-77
2023/08/09 05:46:17;;;;;;;1.25;0.95;;;18.70;99.90;;;;;;5030460;28;20108;-77
2023/08/09 05:48:44;;;;;;;2.25;0.93;;;18.80;99.90;;;;;;5036047;28;20583;-76
2023/08/09 05:51:11;;;;;;;5.05;1.00;;;18.80;99.90;;;;;;5030256;28;20054;-78
2023/08/09 05:53:38;;;;;;;2.15;1.10;;;18.80;99.90;;;;;;5024356;28;20046;-77
2023/08/09 05:56:06;;;;;;;1.00;0.88;;;18.80;99.90;;;;;;5035688;28;20547;-78
2023/08/09 05:58:32;;;;;;;2.67;1.10;;;18.80;99.90;;;;;;5031292;28;20057;-77
2023/08/09 06:00:59;;;;;;;1.63;1.20;;;18.80;99.90;;;;;;5032549;28;20118;-77
2023/08/09 06:03:26;;;;;;;1.98;1.20;;;18.80;99.90;;;;;;5031795;28;20505;-77
2023/08/09 06:05:53;;;;;;;2.17;1.05;;;18.90;99.90;;;;;;5026819;28;20053;-76
2023/08/09 06:08:19;;;;;;;2.15;1.15;;;18.90;99.90;;;;;;5019530;28;20520;-76
2023/08/09 06:10:46;;;;;;;1.90;1.00;;;18.90;99.90;;;;;;5025114;28;20986;-77
2023/08/09 06:13:13;;;;;;;1.45;1.00;;;18.90;99.90;;;;;;5031097;28;20068;-76
2023/08/09 06:15:40;;;;;;;1.65;0.98;;;18.90;99.90;;;;;;5032134;28;20046;-76
2023/08/09 06:18:07;;;;;;;1.23;0.80;;;18.90;99.90;;;;;;5027724;28;20045;-77
2023/08/09 06:20:34;;;;;;;4.03;0.95;;;18.90;99.90;;;;;;5027904;28;20053;-76
2023/08/09 06:23:01;;;;;;;1.98;1.10;;;19.00;99.90;;;;;;5021177;28;20053;-76
2023/08/09 06:25:27;;;;;;;6.38;1.15;;;19.00;99.90;;;;;;5023166;28;20492;-76
2023/08/09 06:27:54;;;;;;;1.13;0.90;;;19.00;99.90;;;;;;5030017;28;20054;-76
2023/08/09 06:30:21;;;;;;;2.25;1.20;;;19.00;99.90;;;;;;5031475;28;20081;-77
2023/08/09 06:32:49;;;;;;;1.17;0.90;;;19.00;99.90;;;;;;5029292;28;20489;-76
2023/08/09 06:35:16;;;;;;;2.97;1.00;;;19.00;99.90;;;;;;5025156;28;20095;-76
2023/08/09 06:37:43;;;;;;;2.72;0.75;;;19.00;99.90;;;;;;5025297;28;20104;-76
2023/08/09 06:40:10;;;;;;;2.58;1.02;;;19.00;99.90;;;;;;5033213;28;20108;-76
2023/08/09 06:42:37;;;;;;;1.48;1.00;;;19.00;99.90;;;;;;5032218;28;20072;-76
2023/08/09 06:45:04;;;;;;;2.13;1.00;;;19.00;99.90;;;;;;5033522;28;20402;-76
2023/08/09 06:47:31;;;;;;;3.65;1.13;;;19.00;99.90;;;;;;5024494;28;20097;-76
2023/08/09 06:50:00;;;;;;;1.83;0.80;;;19.00;99.90;;;;;;5023924;28;20041;-77
2023/08/09 06:52:27;;;;;;;2.47;1.27;;;19.00;99.90;;;;;;5022190;28;20046;-76
2023/08/09 06:54:54;;;;;;;1.77;1.05;;;19.00;99.90;;;;;;5021856;28;20046;-76
2023/08/09 06:57:24;;;;;;;2.30;1.10;;;19.00;99.90;;;;;;5030547;28;20050;-76
2023/08/09 06:59:53;;;;;;;4.10;1.10;;;19.00;99.90;;;;;;5031779;28;20054;-76
2023/08/09 07:02:20;;;;;;;3.22;1.15;;;19.00;99.90;;;;;;5022875;28;20501;-77
2023/08/09 07:04:52;;;;;;;1.40;0.95;;;19.00;99.90;;;;;;5024319;28;20137;-76
2023/08/09 07:07:20;;;;;;;1.38;0.88;;;19.10;99.90;;;;;;5023393;28;20065;-76
2023/08/09 07:09:47;;;;;;;1.35;0.95;;;19.00;99.90;;;;;;5033130;28;20460;-76
2023/08/09 07:12:14;;;;;;;3.92;0.93;;;19.00;99.90;;;;;;5031085;28;20041;-77
2023/08/09 07:14:41;;;;;;;3.80;1.00;;;19.00;99.90;;;;;;5033853;28;20108;-76
2023/08/09 07:17:07;;;;;;;3.13;1.13;;;19.00;99.90;;;;;;5026250;28;20041;-77
2023/08/09 07:19:34;;;;;;;3.53;1.08;;;19.00;99.90;;;;;;5025252;28;20469;-76
2023/08/09 07:22:01;;;;;;;1.52;1.00;;;19.10;99.90;;;;;;5025342;28;20052;-77
2023/08/09 07:24:28;;;;;;;2.30;1.10;;;19.10;99.90;;;;;;5023343;28;20054;-77
2023/08/09 07:26:55;;;;;;;1.33;1.00;;;19.10;99.90;;;;;;5032097;28;20077;-77
2023/08/09 07:29:22;;;;;;;1.40;1.17;;;19.10;99.90;;;;;;5030328;28;20567;-77
2023/08/09 07:31:48;;;;;;;2.30;1.02;;;19.10;99.90;;;;;;5026988;28;20050;-76
2023/08/09 07:34:15;;;;;;;2.75;1.10;;;19.10;99.90;;;;;;5022248;28;20049;-76
2023/08/09 07:36:42;;;;;;;4.15;1.35;;;19.10;99.90;;;;;;5022291;28;20133;-76
2023/08/09 07:39:09;;;;;;;1.88;1.00;;;19.10;99.90;;;;;;5035726;28;20087;-77
2023/08/09 07:41:36;;;;;;;3.17;1.00;;;19.10;99.90;;;;;;5028311;28;20076;-76
2023/08/09 07:44:03;;;;;;;5.47;1.27;;;19.20;99.90;;;;;;5030821;28;20110;-75
2023/08/09 07:46:30;;;;;;;1.73;1.17;;;19.20;99.90;;;;;;5023668;28;20509;-77
2023/08/09 07:49:00;;;;;;;;;;;19.20;99.90;;;;;;5024453;28;20052;-76
2023/08/09 07:51:27;;;;;;;2.17;1.27;;;19.30;99.90;;;;;;5024996;28;19921;-76
2023/08/09 07:53:54;;;;;;;2.13;1.23;;;19.40;99.90;;;;;;5027598;28;20049;-76
2023/08/09 07:56:20;;;;;;;1.55;0.93;;;19.50;99.90;;;;;;5026015;28;20100;-77
2023/08/09 07:58:47;;;;;;;1.48;0.85;;;19.60;99.90;;;;;;5026548;28;20059;-76
2023/08/09 08:01:15;;;;;;;1.92;1.25;;;19.70;99.90;;;;;;5024810;28;20081;-77
2023/08/09 08:03:42;;;;;;;1.25;1.00;;;19.80;99.90;;;;;;5017570;28;20731;-77
2023/08/09 08:06:09;;;;;;;1.00;0.90;;;20.00;99.90;;;;;;5026282;28;20119;-77
2023/08/09 08:08:36;;;;;;;2.17;0.90;;;20.10;99.90;;;;;;5024294;28;20484;-77
2023/08/09 08:11:03;;;;;;;1.83;0.90;;;20.20;99.90;;;;;;5031958;28;20060;-77
2023/08/09 08:13:30;;;;;;;2.97;1.25;;;20.30;99.90;;;;;;5024031;28;20138;-76
2023/08/09 08:15:57;;;;;;;3.28;1.80;;;20.40;99.90;;;;;;5028103;28;20464;-76
2023/08/09 08:18:25;;;;;;;3.05;0.90;;;20.40;99.90;;;;;;5017131;28;20046;-77
2023/08/09 08:20:59;;;;;;;1.67;0.80;;;20.60;99.90;;;;;;5026650;28;20500;-76
2023/08/09 08:23:26;;;;;;;4.35;2.63;;;20.70;99.90;;;;;;5028118;28;20107;-76
2023/08/09 08:25:55;;;;;;;2.70;1.35;;;20.80;99.90;;;;;;5030732;28;20611;-76
2023/08/09 08:28:22;;;;;;;3.20;0.90;;;20.90;99.90;;;;;;5026018;28;20464;-76
2023/08/09 08:30:49;;;;;;;3.97;1.05;;;21.00;99.90;;;;;;5024356;28;20054;-76
2023/08/09 08:33:15;;;;;;;3.17;1.00;;;21.10;99.90;;;;;;5016263;28;20120;-77
2023/08/09 08:35:48;;;;;;;5.40;0.90;;;21.20;99.90;;;;;;5023546;28;20170;-76
2023/08/09 08:38:17;;;;;;;2.53;1.10;;;21.30;99.90;;;;;;5031502;28;20493;-77
2023/08/09 08:40:44;;;;;;;2.90;0.98;;;21.30;99.90;;;;;;5028240;28;20049;-76
2023/08/09 08:43:11;;;;;;;2.75;0.95;;;21.40;99.90;;;;;;5023780;28;20393;-76
2023/08/09 08:45:39;;;;;;;1.60;0.90;;;21.50;99.90;;;;;;5024596;28;20054;-76
2023/08/09 08:48:10;;;;;;;1.63;0.85;;;21.60;99.90;;;;;;5030257;28;20046;-76
2023/08/09 08:50:39;;;;;;;2.28;0.98;;;21.60;99.90;;;;;;5025752;28;20412;-76
2023/08/09 08:53:06;;;;;;;3.80;1.20;;;21.60;99.90;;;;;;5032936;28;20099;-77
2023/08/09 08:55:33;;;;;;;2.08;1.30;;;21.70;99.90;;;;;;5035042;28;20053;-76
2023/08/09 08:58:00;;;;;;;3.20;1.17;;;21.70;99.90;;;;;;5026041;28;20108;-77
2023/08/09 09:00:28;;;;;;;1.30;1.00;;;21.70;99.90;;;;;;5031146;28;20053;-76
2023/08/09 09:02:56;;;;;;;3.70;1.20;;;21.70;99.90;;;;;;5032758;28;20057;-76
2023/08/09 09:05:23;;;;;;;3.40;1.10;;;21.70;99.90;;;;;;5026099;28;20501;-76
2023/08/09 09:07:51;;;;;;;3.38;1.20;;;21.70;99.90;;;;;;5028061;28;20045;-76
2023/08/09 09:10:20;;;;;;;2.65;1.05;;;21.70;99.90;;;;;;5028567;28;20661;-76
2023/08/09 09:12:53;;;;;;;4.13;1.10;;;21.70;99.90;;;;;;5021228;28;20060;-76
2023/08/09 09:15:20;;;;;;;2.45;1.10;;;21.80;99.90;;;;;;5023862;28;20046;-77
2023/08/09 09:17:48;;;;;;;2.95;1.00;;;21.80;99.90;;;;;;5020444;28;20074;-76
2023/08/09 09:20:23;;;;;;;2.85;1.25;;;21.90;99.90;;;;;;5022567;28;20038;-78
2023/08/09 09:22:52;;;;;;;2.17;1.10;;;22.10;99.90;;;;;;5025635;28;20472;-76
2023/08/09 09:25:20;;;;;;;3.55;1.15;;;22.10;99.90;;;;;;5019849;28;20049;-76
2023/08/09 09:27:52;;;;;;;3.08;0.93;;;22.20;99.90;;;;;;5017539;28;20084;-76
2023/08/09 09:30:21;;;;;;;6.00;1.27;;;22.30;99.90;;;;;;5022022;28;20053;-76
2023/08/09 09:32:51;;;;;;;1.60;1.00;;;22.30;99.90;;;;;;5028118;28;20180;-76
2023/08/09 09:35:22;;;;;;;4.40;1.27;;;22.40;99.90;;;;;;5030602;28;20149;-76
2023/08/09 09:37:51;;;;;;;2.75;0.77;;;22.50;99.90;;;;;;5024466;28;20050;-75
2023/08/09 09:40:36;;;;;;;2.17;1.15;;;22.50;99.90;;;;;;5020918;28;20101;-76
2023/08/09 09:43:05;;;;;;;1.92;0.82;;;22.60;99.90;;;;;;5022055;28;20064;-75
2023/08/09 09:45:32;;;;;;;4.03;1.00;;;22.70;99.90;;;;;;5023186;28;20125;-76
2023/08/09 09:48:01;;;;;;;2.78;1.10;;;22.70;99.90;;;;;;5020845;28;20050;-75
2023/08/09 09:50:31;;;;;;;2.40;1.00;;;22.80;99.90;;;;;;5025028;28;20132;-76
2023/08/09 09:52:59;;;;;;;3.03;1.03;;;22.90;99.90;;;;;;5026892;28;20350;-76
2023/08/09 09:55:28;;;;;;;1.95;1.00;;;23.00;99.90;;;;;;5027284;28;20540;-76
2023/08/09 09:57:56;;;;;;;3.90;1.00;;;23.10;99.90;;;;;;5024464;28;20037;-78
2023/08/09 10:00:28;;;;;;;5.13;1.05;;;23.10;99.90;;;;;;5026255;28;20046;-76
2023/08/09 10:02:58;;;;;;;2.33;1.23;;;23.20;99.90;;;;;;5015016;28;20053;-76
2023/08/09 10:05:35;;;;;;;2.72;1.10;;;23.30;99.90;;;;;;5024316;28;20045;-76
2023/08/09 10:08:07;;;;;;;1.02;0.90;;;23.30;99.90;;;;;;5025014;28;20398;-76
2023/08/09 10:10:42;;;;;;;3.22;1.00;;;23.40;99.90;;;;;;5019005;28;20056;-75
2023/08/09 10:13:12;;;;;;;1.05;0.80;;;23.50;99.90;;;;;;5021505;28;20041;-75
2023/08/09 10:15:49;;;;;;;2.58;1.10;;;23.50;99.90;;;;;;5022115;28;20045;-75
2023/08/09 10:18:29;;;;;;;2.00;1.00;;;23.50;99.90;;;;;;5026587;28;20048;-77
2023/08/09 10:20:59;;;;;;;2.13;1.02;;;23.60;99.90;;;;;;5029055;28;20054;-77
2023/08/09 10:23:29;;;;;;;1.75;0.98;;;23.60;99.90;;;;;;5026598;28;20049;-77
2023/08/09 10:25:56;;;;;;;2.42;1.08;;;23.70;99.90;;;;;;5023942;28;20054;-77
2023/08/09 10:28:38;;;;;;;6.10;1.10;;;23.70;99.90;;;;;;5029930;28;20099;-77
2023/08/09 10:31:05;;;;;;;2.38;1.00;;;23.70;99.90;;;;;;5020994;28;20049;-77
2023/08/09 10:33:32;;;;;;;2.97;1.23;;;23.80;99.90;;;;;;5018356;28;20049;-77
2023/08/09 10:35:59;;;;;;;2.38;1.00;;;23.80;99.90;;;;;;5029834;28;20048;-77
2023/08/09 10:38:32;;;;;;;1.17;0.80;;;23.90;99.90;;;;;;5029078;28;20053;-77
2023/08/09 10:41:13;;;;;;;2.30;0.93;;;23.90;99.90;;;;;;5022132;28;20045;-77
2023/08/09 10:43:40;;;;;;;3.13;0.95;;;23.90;99.90;;;;;;5026535;28;20054;-77
2023/08/09 10:46:20;;;;;;;6.40;1.10;;;24.00;99.90;;;;;;5024077;28;20559;-77
2023/08/09 10:48:49;;;;;;;3.40;1.10;;;24.00;99.90;;;;;;5030247;28;20527;-77
2023/08/09 10:51:19;;;;;;;2.35;1.10;;;24.10;99.90;;;;;;5031184;28;20416;-77
2023/08/09 10:53:51;;;;;;;1.88;1.00;;;24.10;99.90;;;;;;5028373;28;20052;-77
2023/08/09 10:56:34;;;;;;;2.72;0.90;;;24.20;99.90;;;;;;5022234;28;20046;-77
2023/08/09 10:59:15;;;;;;;2.58;1.20;;;24.30;99.90;;;;;;5031862;28;20041;-77
2023/08/09 11:01:42;;;;;;;3.00;1.10;;;24.40;99.90;;;;;;5030304;28;20046;-77
2023/08/09 11:04:12;;;;;;;1.02;0.88;;;24.50;99.90;;;;;;5026043;28;20053;-77
2023/08/09 11:06:40;;;;;;;2.97;1.13;;;24.50;99.90;;;;;;5029948;28;20493;-77
2023/08/09 11:09:16;;;;;;;3.10;1.63;;;24.50;99.90;;;;;;5034173;28;20088;-77
2023/08/09 11:11:45;;;;;;;2.30;0.95;;;24.50;99.90;;;;;;5035161;28;20136;-77
2023/08/09 11:14:14;;;;;;;3.33;1.23;;;24.60;99.90;;;;;;5031731;28;20401;-77
2023/08/09 11:16:41;;;;;;;3.55;1.30;;;24.60;99.90;;;;;;5030747;28;20100;-77
2023/08/09 11:19:14;;;;;;;1.65;1.10;;;24.60;99.90;;;;;;5031233;28;20075;-77
2023/08/09 11:22:00;;;;;;;1.38;1.05;;;24.60;99.90;;;;;;5028712;28;20120;-77
2023/08/09 11:24:29;;;;;;;2.63;1.00;;;24.60;99.90;;;;;;5026363;28;20046;-77
2023/08/09 11:26:58;;;;;;;5.60;1.08;;;24.60;99.90;;;;;;5034524;28;20046;-77
2023/08/09 11:29:27;;;;;;;3.00;0.98;;;24.60;99.90;;;;;;5035175;28;20054;-77
2023/08/09 11:31:56;;;;;;;2.22;1.20;;;24.50;99.90;;;;;;5027163;28;20071;-77
2023/08/09 11:34:24;;;;;;;2.65;1.40;;;24.50;99.90;;;;;;5027553;28;20042;-77
2023/08/09 11:36:54;;;;;;;2.95;1.17;;;24.50;99.90;;;;;;5025105;28;20045;-77
2023/08/09 11:39:26;;;;;;;3.20;1.23;;;24.60;99.90;;;;;;5028233;28;20049;-77
2023/08/09 11:41:56;;;;;;;3.15;1.00;;;24.60;99.90;;;;;;5019480;28;20100;-77
2023/08/09 11:44:30;;;;;;;2.85;1.05;;;24.60;99.90;;;;;;5026654;28;20049;-77
2023/08/09 11:46:59;;;;;;;2.92;1.15;;;24.70;99.90;;;;;;5028144;28;20060;-77
2023/08/09 11:49:32;;;;;;;1.50;1.00;;;24.70;99.90;;;;;;5030973;28;20054;-77
2023/08/09 11:52:00;;;;;;;4.30;0.93;;;24.70;99.90;;;;;;5025117;28;20046;-77
2023/08/09 11:54:29;;;;;;;2.33;0.90;;;24.70;99.90;;;;;;5029683;28;20054;-77
2023/08/09 11:56:56;;;;;;;2.58;1.20;;;24.70;99.90;;;;;;5025671;28;20045;-77
2023/08/09 11:59:24;;;;;;;4.47;1.25;;;24.70;99.90;;;;;;5029428;28;20041;-77
2023/08/09 12:01:55;;;;;;;2.70;1.20;;;24.60;99.90;;;;;;5023490;28;20132;-77
2023/08/09 12:04:24;;;;;;;2.53;1.17;;;24.60;99.90;;;;;;5025671;28;20100;-77
2023/08/09 12:06:54;;;;;;;5.00;1.27;;;24.60;99.90;;;;;;5025672;28;20473;-77
2023/08/09 12:09:37;;;;;;;4.25;1.20;;;24.50;99.90;;;;;;5028043;28;20050;-77
2023/08/09 12:12:16;;;;;;;4.35;1.10;;;24.50;99.90;;;;;;5018784;28;20049;-77
2023/08/09 12:14:48;;;;;;;3.38;0.95;;;24.40;99.90;;;;;;5024064;28;20069;-77
2023/08/09 12:17:25;;;;;;;3.60;1.20;;;24.40;99.90;;;;;;5032180;28;20041;-77
2023/08/09 12:19:58;;;;;;;3.58;1.15;;;24.50;99.90;;;;;;5025743;28;20547;-77
2023/08/09 12:22:25;;;;;;;2.63;0.93;;;24.50;99.90;;;;;;5034538;28;20104;-77
2023/08/09 12:24:53;;;;;;;1.98;1.42;;;24.50;99.90;;;;;;5029312;28;20049;-77
2023/08/09 12:27:20;;;;;;;3.40;1.05;;;24.50;99.90;;;;;;5029520;28;20053;-77
2023/08/09 12:29:47;;;;;;;3.05;1.30;;;24.50;99.90;;;;;;5031698;28;20432;-77
2023/08/09 12:32:15;;;;;;;2.92;1.02;;;24.60;99.90;;;;;;5029605;28;20091;-78
2023/08/09 12:34:42;;;;;;;3.65;1.30;;;24.60;99.90;;;;;;5029339;28;20056;-77
2023/08/09 12:37:09;;;;;;;2.50;0.90;;;24.60;99.90;;;;;;5024200;28;20104;-77
2023/08/09 12:39:35;;;;;;;2.22;0.95;;;24.70;99.90;;;;;;5027808;28;20142;-77
2023/08/09 12:42:03;;;;;;;1.48;0.88;;;24.70;99.90;;;;;;5017476;28;20046;-76
2023/08/09 12:44:32;;;;;;;3.55;1.20;;;24.70;99.90;;;;;;5028011;28;20060;-77
2023/08/09 12:46:59;;;;;;;3.33;1.10;;;24.70;99.90;;;;;;5027727;28;20056;-77
2023/08/09 12:49:25;;;;;;;2.25;1.13;;;24.70;99.90;;;;;;5034617;28;20427;-77
2023/08/09 12:51:52;;;;;;;4.45;1.27;;;24.70;99.90;;;;;;5024436;28;20042;-76
2023/08/09 12:54:19;;;;;;;4.60;1.25;;;24.80;99.90;;;;;;5023168;28;20147;-78